sensor_id;sensor_type;location;lat;lon;timestamp;P1;durP1;ratioP1;P2;durP2;ratioP2
26060;SDS011;36331;51.378;0.018;2022-08-19T00:00:47;3.00;;;1.77;;
26060;SDS011;36331;51.378;0.018;2022-08-19T00:03:17;3.58;;;2.15;;
26060;SDS011;36331;51.378;0.018;2022-08-19T00:05:46;3.28;;;1.90;;
26060;SDS011;36331;51.378;0.018;2022-08-19T00:08:15;3.95;;;2.22;;
26060;SDS011;36331;51.378;0.018;2022-08-19T00:10:45;4.63;;;3.03;;
26060;SDS011;36331;51.378;0.018;2022-08-19T00:13:14;5.22;;;2.13;;
26060;SDS011;36331;51.378;0.018;2022-08-19T00:15:47;8.18;;;2.63;;
26060;SDS011;36331;51.378;0.018;2022-08-19T00:18:16;4.90;;;2.78;;
26060;SDS011;36331;51.378;0.018;2022-08-19T00:20:45;5.20;;;2.13;;
26060;SDS011;36331;51.378;0.018;2022-08-19T00:23:14;3.13;;;1.80;;
26060;SDS011;36331;51.378;0.018;2022-08-19T00:25:44;4.55;;;2.58;;
26060;SDS011;36331;51.378;0.018;2022-08-19T00:28:14;3.90;;;2.40;;
26060;SDS011;36331;51.378;0.018;2022-08-19T00:30:44;6.57;;;2.88;;
26060;SDS011;36331;51.378;0.018;2022-08-19T00:33:14;4.25;;;2.05;;
26060;SDS011;36331;51.378;0.018;2022-08-19T00:35:44;5.95;;;2.15;;
26060;SDS011;36331;51.378;0.018;2022-08-19T00:38:22;3.20;;;1.65;;
26060;SDS011;36331;51.378;0.018;2022-08-19T00:41:03;5.25;;;2.30;;
26060;SDS011;36331;51.378;0.018;2022-08-19T00:43:33;3.55;;;2.38;;
26060;SDS011;36331;51.378;0.018;2022-08-19T00:46:07;3.90;;;1.98;;
26060;SDS011;36331;51.378;0.018;2022-08-19T00:48:53;3.20;;;1.75;;
26060;SDS011;36331;51.378;0.018;2022-08-19T00:51:23;3.45;;;1.52;;
26060;SDS011;36331;51.378;0.018;2022-08-19T00:53:56;4.95;;;2.22;;
26060;SDS011;36331;51.378;0.018;2022-08-19T00:56:25;3.50;;;2.38;;
26060;SDS011;36331;51.378;0.018;2022-08-19T00:58:55;3.22;;;2.13;;
26060;SDS011;36331;51.378;0.018;2022-08-19T01:01:25;3.92;;;2.15;;
26060;SDS011;36331;51.378;0.018;2022-08-19T01:03:59;5.40;;;2.38;;
26060;SDS011;36331;51.378;0.018;2022-08-19T01:06:31;3.00;;;1.60;;
26060;SDS011;36331;51.378;0.018;2022-08-19T01:09:01;2.45;;;1.65;;
26060;SDS011;36331;51.378;0.018;2022-08-19T01:11:34;3.13;;;1.55;;
26060;SDS011;36331;51.378;0.018;2022-08-19T01:14:10;3.33;;;1.75;;
26060;SDS011;36331;51.378;0.018;2022-08-19T01:16:39;2.83;;;1.92;;
26060;SDS011;36331;51.378;0.018;2022-08-19T01:19:13;3.45;;;2.00;;
26060;SDS011;36331;51.378;0.018;2022-08-19T01:21:49;3.13;;;1.98;;
26060;SDS011;36331;51.378;0.018;2022-08-19T01:24:22;5.85;;;2.28;;
26060;SDS011;36331;51.378;0.018;2022-08-19T01:26:51;2.60;;;2.05;;
26060;SDS011;36331;51.378;0.018;2022-08-19T01:29:22;3.93;;;2.37;;
26060;SDS011;36331;51.378;0.018;2022-08-19T01:31:52;4.57;;;1.95;;
26060;SDS011;36331;51.378;0.018;2022-08-19T01:34:22;4.22;;;2.05;;
26060;SDS011;36331;51.378;0.018;2022-08-19T01:36:51;5.28;;;3.00;;
26060;SDS011;36331;51.378;0.018;2022-08-19T01:39:23;3.53;;;2.35;;
26060;SDS011;36331;51.378;0.018;2022-08-19T01:41:52;5.70;;;3.03;;
26060;SDS011;36331;51.378;0.018;2022-08-19T01:44:22;4.97;;;3.72;;
26060;SDS011;36331;51.378;0.018;2022-08-19T01:46:52;5.90;;;3.70;;
26060;SDS011;36331;51.378;0.018;2022-08-19T01:49:23;6.38;;;3.63;;
26060;SDS011;36331;51.378;0.018;2022-08-19T01:51:53;4.68;;;3.22;;
26060;SDS011;36331;51.378;0.018;2022-08-19T01:54:25;6.00;;;3.70;;
26060;SDS011;36331;51.378;0.018;2022-08-19T01:56:55;4.55;;;3.60;;
26060;SDS011;36331;51.378;0.018;2022-08-19T01:59:29;5.68;;;3.60;;
26060;SDS011;36331;51.378;0.018;2022-08-19T02:01:58;5.20;;;3.88;;
26060;SDS011;36331;51.378;0.018;2022-08-19T02:04:29;5.07;;;3.60;;
26060;SDS011;36331;51.378;0.018;2022-08-19T02:06:58;7.10;;;4.68;;
26060;SDS011;36331;51.378;0.018;2022-08-19T02:09:29;7.57;;;3.97;;
26060;SDS011;36331;51.378;0.018;2022-08-19T02:11:59;5.32;;;3.80;;
26060;SDS011;36331;51.378;0.018;2022-08-19T02:14:28;7.65;;;4.50;;
26060;SDS011;36331;51.378;0.018;2022-08-19T02:16:58;6.13;;;4.05;;
26060;SDS011;36331;51.378;0.018;2022-08-19T02:19:28;5.55;;;4.00;;
26060;SDS011;36331;51.378;0.018;2022-08-19T02:22:00;7.32;;;4.53;;
26060;SDS011;36331;51.378;0.018;2022-08-19T02:24:33;4.78;;;3.70;;
26060;SDS011;36331;51.378;0.018;2022-08-19T02:27:02;7.50;;;4.07;;
26060;SDS011;36331;51.378;0.018;2022-08-19T02:29:32;6.28;;;4.10;;
26060;SDS011;36331;51.378;0.018;2022-08-19T02:32:01;9.18;;;4.63;;
26060;SDS011;36331;51.378;0.018;2022-08-19T02:34:31;5.20;;;3.72;;
26060;SDS011;36331;51.378;0.018;2022-08-19T02:37:03;5.97;;;3.53;;
26060;SDS011;36331;51.378;0.018;2022-08-19T02:39:34;6.57;;;3.88;;
26060;SDS011;36331;51.378;0.018;2022-08-19T02:42:02;9.60;;;3.90;;
26060;SDS011;36331;51.378;0.018;2022-08-19T02:44:32;4.72;;;3.92;;
26060;SDS011;36331;51.378;0.018;2022-08-19T02:47:01;5.60;;;4.50;;
26060;SDS011;36331;51.378;0.018;2022-08-19T02:49:31;6.22;;;3.53;;
26060;SDS011;36331;51.378;0.018;2022-08-19T02:52:01;5.03;;;4.38;;
26060;SDS011;36331;51.378;0.018;2022-08-19T02:54:30;5.70;;;3.67;;
26060;SDS011;36331;51.378;0.018;2022-08-19T02:57:01;6.57;;;3.97;;
26060;SDS011;36331;51.378;0.018;2022-08-19T02:59:30;7.63;;;4.32;;
26060;SDS011;36331;51.378;0.018;2022-08-19T03:02:00;6.28;;;4.03;;
26060;SDS011;36331;51.378;0.018;2022-08-19T03:04:31;5.97;;;3.53;;
26060;SDS011;36331;51.378;0.018;2022-08-19T03:07:01;4.15;;;3.38;;
26060;SDS011;36331;51.378;0.018;2022-08-19T03:09:37;7.25;;;3.60;;
26060;SDS011;36331;51.378;0.018;2022-08-19T03:12:07;9.57;;;4.32;;
26060;SDS011;36331;51.378;0.018;2022-08-19T03:14:37;5.72;;;3.33;;
26060;SDS011;36331;51.378;0.018;2022-08-19T03:17:07;4.75;;;3.40;;
26060;SDS011;36331;51.378;0.018;2022-08-19T03:19:36;4.63;;;3.10;;
26060;SDS011;36331;51.378;0.018;2022-08-19T03:22:06;4.70;;;3.03;;
26060;SDS011;36331;51.378;0.018;2022-08-19T03:24:35;8.82;;;3.70;;
26060;SDS011;36331;51.378;0.018;2022-08-19T03:27:05;7.00;;;3.67;;
26060;SDS011;36331;51.378;0.018;2022-08-19T03:29:36;5.07;;;3.90;;
26060;SDS011;36331;51.378;0.018;2022-08-19T03:32:09;5.70;;;4.60;;
26060;SDS011;36331;51.378;0.018;2022-08-19T03:34:59;6.05;;;4.47;;
26060;SDS011;36331;51.378;0.018;2022-08-19T03:37:29;6.60;;;4.80;;
26060;SDS011;36331;51.378;0.018;2022-08-19T03:39:58;7.15;;;4.85;;
26060;SDS011;36331;51.378;0.018;2022-08-19T03:42:30;7.90;;;4.38;;
26060;SDS011;36331;51.378;0.018;2022-08-19T03:45:21;5.40;;;4.30;;
26060;SDS011;36331;51.378;0.018;2022-08-19T03:47:50;6.97;;;5.30;;
26060;SDS011;36331;51.378;0.018;2022-08-19T03:50:20;8.25;;;4.88;;
26060;SDS011;36331;51.378;0.018;2022-08-19T03:52:50;7.68;;;4.93;;
26060;SDS011;36331;51.378;0.018;2022-08-19T03:55:19;8.25;;;4.88;;
26060;SDS011;36331;51.378;0.018;2022-08-19T03:57:49;7.35;;;4.70;;
26060;SDS011;36331;51.378;0.018;2022-08-19T04:00:27;6.18;;;5.15;;
26060;SDS011;36331;51.378;0.018;2022-08-19T04:02:56;6.05;;;4.70;;
26060;SDS011;36331;51.378;0.018;2022-08-19T04:05:27;6.53;;;4.45;;
26060;SDS011;36331;51.378;0.018;2022-08-19T04:07:56;7.43;;;4.82;;
26060;SDS011;36331;51.378;0.018;2022-08-19T04:10:26;5.65;;;4.32;;
26060;SDS011;36331;51.378;0.018;2022-08-19T04:12:56;6.63;;;4.50;;
26060;SDS011;36331;51.378;0.018;2022-08-19T04:15:27;9.13;;;4.45;;
26060;SDS011;36331;51.378;0.018;2022-08-19T04:18:00;9.18;;;4.18;;
26060;SDS011;36331;51.378;0.018;2022-08-19T04:20:29;6.22;;;4.55;;
26060;SDS011;36331;51.378;0.018;2022-08-19T04:22:58;6.05;;;4.97;;
26060;SDS011;36331;51.378;0.018;2022-08-19T04:25:28;6.18;;;4.68;;
26060;SDS011;36331;51.378;0.018;2022-08-19T04:27:57;5.25;;;4.68;;
26060;SDS011;36331;51.378;0.018;2022-08-19T04:30:28;7.40;;;5.10;;
26060;SDS011;36331;51.378;0.018;2022-08-19T04:32:58;5.93;;;4.57;;
26060;SDS011;36331;51.378;0.018;2022-08-19T04:35:27;5.78;;;5.03;;
26060;SDS011;36331;51.378;0.018;2022-08-19T04:37:57;6.70;;;4.72;;
26060;SDS011;36331;51.378;0.018;2022-08-19T04:40:27;17.75;;;5.95;;
26060;SDS011;36331;51.378;0.018;2022-08-19T04:43:14;6.10;;;5.47;;
26060;SDS011;36331;51.378;0.018;2022-08-19T04:45:45;6.60;;;5.03;;
26060;SDS011;36331;51.378;0.018;2022-08-19T04:48:14;5.75;;;4.70;;
26060;SDS011;36331;51.378;0.018;2022-08-19T04:50:54;7.63;;;5.45;;
26060;SDS011;36331;51.378;0.018;2022-08-19T04:53:25;7.70;;;5.68;;
26060;SDS011;36331;51.378;0.018;2022-08-19T04:56:04;8.40;;;6.43;;
26060;SDS011;36331;51.378;0.018;2022-08-19T04:58:35;6.53;;;5.13;;
26060;SDS011;36331;51.378;0.018;2022-08-19T05:01:06;6.03;;;5.43;;
26060;SDS011;36331;51.378;0.018;2022-08-19T05:03:37;5.80;;;5.15;;
26060;SDS011;36331;51.378;0.018;2022-08-19T05:06:07;9.25;;;5.68;;
26060;SDS011;36331;51.378;0.018;2022-08-19T05:08:38;6.65;;;5.00;;
26060;SDS011;36331;51.378;0.018;2022-08-19T05:11:10;5.23;;;4.73;;
26060;SDS011;36331;51.378;0.018;2022-08-19T05:13:40;5.07;;;4.45;;
26060;SDS011;36331;51.378;0.018;2022-08-19T05:16:12;6.10;;;4.57;;
26060;SDS011;36331;51.378;0.018;2022-08-19T05:18:42;4.75;;;4.25;;
26060;SDS011;36331;51.378;0.018;2022-08-19T05:21:29;4.32;;;3.88;;
26060;SDS011;36331;51.378;0.018;2022-08-19T05:24:16;4.53;;;3.63;;
26060;SDS011;36331;51.378;0.018;2022-08-19T05:26:47;3.97;;;3.47;;
26060;SDS011;36331;51.378;0.018;2022-08-19T05:29:18;6.63;;;3.58;;
26060;SDS011;36331;51.378;0.018;2022-08-19T05:31:50;4.22;;;3.83;;
26060;SDS011;36331;51.378;0.018;2022-08-19T05:34:20;3.85;;;3.42;;
26060;SDS011;36331;51.378;0.018;2022-08-19T05:36:52;6.53;;;3.47;;
26060;SDS011;36331;51.378;0.018;2022-08-19T05:39:24;3.55;;;2.90;;
26060;SDS011;36331;51.378;0.018;2022-08-19T05:41:55;3.38;;;3.08;;
26060;SDS011;36331;51.378;0.018;2022-08-19T05:44:25;3.42;;;2.95;;
26060;SDS011;36331;51.378;0.018;2022-08-19T05:46:59;2.63;;;2.42;;
26060;SDS011;36331;51.378;0.018;2022-08-19T05:49:30;3.03;;;2.72;;
26060;SDS011;36331;51.378;0.018;2022-08-19T05:52:01;3.05;;;2.28;;
26060;SDS011;36331;51.378;0.018;2022-08-19T05:54:30;2.57;;;2.17;;
26060;SDS011;36331;51.378;0.018;2022-08-19T05:57:01;2.10;;;1.77;;
26060;SDS011;36331;51.378;0.018;2022-08-19T05:59:30;1.55;;;1.45;;
26060;SDS011;36331;51.378;0.018;2022-08-19T06:02:02;3.05;;;1.08;;
26060;SDS011;36331;51.378;0.018;2022-08-19T06:04:31;1.55;;;1.27;;
26060;SDS011;36331;51.378;0.018;2022-08-19T06:07:01;1.05;;;0.95;;
26060;SDS011;36331;51.378;0.018;2022-08-19T06:09:46;2.45;;;0.68;;
26060;SDS011;36331;51.378;0.018;2022-08-19T06:12:27;3.08;;;0.77;;
26060;SDS011;36331;51.378;0.018;2022-08-19T06:15:00;0.70;;;0.40;;
26060;SDS011;36331;51.378;0.018;2022-08-19T06:17:30;0.95;;;0.32;;
26060;SDS011;36331;51.378;0.018;2022-08-19T06:20:02;0.90;;;0.60;;
26060;SDS011;36331;51.378;0.018;2022-08-19T06:22:35;0.80;;;0.40;;
26060;SDS011;36331;51.378;0.018;2022-08-19T06:25:06;1.17;;;0.40;;
26060;SDS011;36331;51.378;0.018;2022-08-19T06:27:36;0.47;;;0.30;;
26060;SDS011;36331;51.378;0.018;2022-08-19T06:30:24;0.60;;;0.30;;
26060;SDS011;36331;51.378;0.018;2022-08-19T06:32:55;0.60;;;0.20;;
26060;SDS011;36331;51.378;0.018;2022-08-19T06:35:24;0.63;;;0.20;;
26060;SDS011;36331;51.378;0.018;2022-08-19T06:37:53;0.70;;;0.30;;
26060;SDS011;36331;51.378;0.018;2022-08-19T06:40:23;0.52;;;0.20;;
26060;SDS011;36331;51.378;0.018;2022-08-19T06:42:54;0.47;;;0.20;;
26060;SDS011;36331;51.378;0.018;2022-08-19T06:45:27;1.73;;;0.25;;
26060;SDS011;36331;51.378;0.018;2022-08-19T06:48:03;0.10;;;0.10;;
26060;SDS011;36331;51.378;0.018;2022-08-19T06:50:32;0.20;;;0.20;;
26060;SDS011;36331;51.378;0.018;2022-08-19T06:53:05;1.55;;;0.28;;
26060;SDS011;36331;51.378;0.018;2022-08-19T06:55:34;0.77;;;0.20;;
26060;SDS011;36331;51.378;0.018;2022-08-19T06:58:04;0.85;;;0.20;;
26060;SDS011;36331;51.378;0.018;2022-08-19T07:00:33;0.55;;;0.30;;
26060;SDS011;36331;51.378;0.018;2022-08-19T07:03:05;0.68;;;0.20;;
26060;SDS011;36331;51.378;0.018;2022-08-19T07:05:39;1.55;;;0.22;;
26060;SDS011;36331;51.378;0.018;2022-08-19T07:08:12;0.80;;;0.10;;
26060;SDS011;36331;51.378;0.018;2022-08-19T07:10:42;1.00;;;0.28;;
26060;SDS011;36331;51.378;0.018;2022-08-19T07:13:11;1.17;;;0.22;;
26060;SDS011;36331;51.378;0.018;2022-08-19T07:15:41;1.10;;;0.25;;
26060;SDS011;36331;51.378;0.018;2022-08-19T07:18:11;1.63;;;0.22;;
26060;SDS011;36331;51.378;0.018;2022-08-19T07:20:40;2.42;;;0.22;;
26060;SDS011;36331;51.378;0.018;2022-08-19T07:23:09;0.40;;;0.20;;
26060;SDS011;36331;51.378;0.018;2022-08-19T07:25:42;2.83;;;0.40;;
26060;SDS011;36331;51.378;0.018;2022-08-19T07:28:21;1.50;;;0.30;;
26060;SDS011;36331;51.378;0.018;2022-08-19T07:30:53;0.85;;;0.30;;
26060;SDS011;36331;51.378;0.018;2022-08-19T07:33:23;0.65;;;0.38;;
26060;SDS011;36331;51.378;0.018;2022-08-19T07:35:55;1.17;;;0.25;;
26060;SDS011;36331;51.378;0.018;2022-08-19T07:38:24;0.70;;;0.28;;
26060;SDS011;36331;51.378;0.018;2022-08-19T07:40:53;0.50;;;0.20;;
26060;SDS011;36331;51.378;0.018;2022-08-19T07:43:23;3.28;;;0.25;;
26060;SDS011;36331;51.378;0.018;2022-08-19T07:46:00;2.40;;;0.30;;
26060;SDS011;36331;51.378;0.018;2022-08-19T07:48:32;3.00;;;0.30;;
26060;SDS011;36331;51.378;0.018;2022-08-19T07:51:02;0.60;;;0.30;;
26060;SDS011;36331;51.378;0.018;2022-08-19T07:53:34;0.63;;;0.30;;
26060;SDS011;36331;51.378;0.018;2022-08-19T07:56:06;0.82;;;0.20;;
26060;SDS011;36331;51.378;0.018;2022-08-19T07:58:39;0.35;;;0.20;;
26060;SDS011;36331;51.378;0.018;2022-08-19T08:01:09;0.82;;;0.20;;
26060;SDS011;36331;51.378;0.018;2022-08-19T08:03:40;0.65;;;0.10;;
26060;SDS011;36331;51.378;0.018;2022-08-19T08:06:27;1.35;;;0.20;;
26060;SDS011;36331;51.378;0.018;2022-08-19T08:09:13;0.70;;;0.38;;
26060;SDS011;36331;51.378;0.018;2022-08-19T08:11:52;0.32;;;0.20;;
26060;SDS011;36331;51.378;0.018;2022-08-19T08:14:23;1.75;;;0.28;;
26060;SDS011;36331;51.378;0.018;2022-08-19T08:17:01;1.13;;;0.20;;
26060;SDS011;36331;51.378;0.018;2022-08-19T08:19:38;1.83;;;0.30;;
26060;SDS011;36331;51.378;0.018;2022-08-19T08:22:08;0.50;;;0.20;;
26060;SDS011;36331;51.378;0.018;2022-08-19T08:25:00;1.58;;;0.20;;
26060;SDS011;36331;51.378;0.018;2022-08-19T08:27:34;1.20;;;0.20;;
26060;SDS011;36331;51.378;0.018;2022-08-19T08:30:06;1.75;;;0.40;;
26060;SDS011;36331;51.378;0.018;2022-08-19T08:32:36;1.38;;;0.20;;
26060;SDS011;36331;51.378;0.018;2022-08-19T08:35:09;0.50;;;0.30;;
26060;SDS011;36331;51.378;0.018;2022-08-19T08:40:09;1.00;;;0.20;;
26060;SDS011;36331;51.378;0.018;2022-08-19T08:42:46;0.38;;;0.30;;
26060;SDS011;36331;51.378;0.018;2022-08-19T08:45:19;1.38;;;0.28;;
26060;SDS011;36331;51.378;0.018;2022-08-19T08:48:10;2.53;;;0.40;;
26060;SDS011;36331;51.378;0.018;2022-08-19T08:50:51;0.95;;;0.20;;
26060;SDS011;36331;51.378;0.018;2022-08-19T08:53:25;0.80;;;0.20;;
26060;SDS011;36331;51.378;0.018;2022-08-19T08:56:03;0.85;;;0.20;;
26060;SDS011;36331;51.378;0.018;2022-08-19T08:58:36;1.33;;;0.25;;
26060;SDS011;36331;51.378;0.018;2022-08-19T09:01:09;2.15;;;0.30;;
26060;SDS011;36331;51.378;0.018;2022-08-19T09:03:39;1.20;;;0.20;;
26060;SDS011;36331;51.378;0.018;2022-08-19T09:06:14;0.70;;;0.20;;
26060;SDS011;36331;51.378;0.018;2022-08-19T09:08:45;3.08;;;0.40;;
26060;SDS011;36331;51.378;0.018;2022-08-19T09:11:24;1.10;;;0.30;;
26060;SDS011;36331;51.378;0.018;2022-08-19T09:14:12;1.75;;;0.20;;
26060;SDS011;36331;51.378;0.018;2022-08-19T09:17:05;1.45;;;0.65;;
26060;SDS011;36331;51.378;0.018;2022-08-19T09:19:46;0.93;;;0.20;;
26060;SDS011;36331;51.378;0.018;2022-08-19T09:22:17;1.23;;;0.30;;
26060;SDS011;36331;51.378;0.018;2022-08-19T09:24:52;1.60;;;0.30;;
26060;SDS011;36331;51.378;0.018;2022-08-19T09:27:21;1.50;;;0.50;;
26060;SDS011;36331;51.378;0.018;2022-08-19T09:30:09;1.83;;;0.20;;
26060;SDS011;36331;51.378;0.018;2022-08-19T09:32:39;1.98;;;0.40;;
26060;SDS011;36331;51.378;0.018;2022-08-19T09:35:10;1.00;;;0.20;;
26060;SDS011;36331;51.378;0.018;2022-08-19T09:37:42;1.90;;;0.32;;
26060;SDS011;36331;51.378;0.018;2022-08-19T09:40:12;0.50;;;0.30;;
26060;SDS011;36331;51.378;0.018;2022-08-19T09:42:42;1.48;;;0.77;;
26060;SDS011;36331;51.378;0.018;2022-08-19T09:45:18;1.48;;;0.40;;
26060;SDS011;36331;51.378;0.018;2022-08-19T09:47:49;1.45;;;0.28;;
26060;SDS011;36331;51.378;0.018;2022-08-19T09:50:21;3.72;;;0.50;;
26060;SDS011;36331;51.378;0.018;2022-08-19T09:53:05;1.75;;;0.35;;
26060;SDS011;36331;51.378;0.018;2022-08-19T09:58:06;1.67;;;0.35;;
26060;SDS011;36331;51.378;0.018;2022-08-19T10:00:38;2.22;;;0.40;;
26060;SDS011;36331;51.378;0.018;2022-08-19T10:03:17;1.40;;;0.50;;
26060;SDS011;36331;51.378;0.018;2022-08-19T10:05:52;3.47;;;0.80;;
26060;SDS011;36331;51.378;0.018;2022-08-19T10:08:23;1.23;;;0.32;;
26060;SDS011;36331;51.378;0.018;2022-08-19T10:13:23;2.08;;;1.10;;
26060;SDS011;36331;51.378;0.018;2022-08-19T10:15:53;0.90;;;0.57;;
26060;SDS011;36331;51.378;0.018;2022-08-19T10:18:24;3.47;;;0.73;;
26060;SDS011;36331;51.378;0.018;2022-08-19T10:21:01;2.58;;;0.30;;
26060;SDS011;36331;51.378;0.018;2022-08-19T10:23:33;2.55;;;0.70;;
26060;SDS011;36331;51.378;0.018;2022-08-19T10:26:04;2.90;;;0.30;;
26060;SDS011;36331;51.378;0.018;2022-08-19T10:28:34;0.90;;;0.30;;
26060;SDS011;36331;51.378;0.018;2022-08-19T10:31:05;2.47;;;0.80;;
26060;SDS011;36331;51.378;0.018;2022-08-19T10:33:38;3.28;;;0.50;;
26060;SDS011;36331;51.378;0.018;2022-08-19T10:36:21;1.42;;;0.40;;
26060;SDS011;36331;51.378;0.018;2022-08-19T10:38:53;2.50;;;0.40;;
26060;SDS011;36331;51.378;0.018;2022-08-19T10:41:25;3.00;;;0.63;;
26060;SDS011;36331;51.378;0.018;2022-08-19T10:43:57;1.48;;;0.40;;
26060;SDS011;36331;51.378;0.018;2022-08-19T10:46:31;3.22;;;0.50;;
26060;SDS011;36331;51.378;0.018;2022-08-19T10:49:04;2.67;;;0.43;;
26060;SDS011;36331;51.378;0.018;2022-08-19T10:51:34;3.72;;;0.60;;
26060;SDS011;36331;51.378;0.018;2022-08-19T10:54:26;1.15;;;0.47;;
26060;SDS011;36331;51.378;0.018;2022-08-19T10:57:12;2.15;;;0.50;;
26060;SDS011;36331;51.378;0.018;2022-08-19T10:59:42;2.90;;;0.88;;
26060;SDS011;36331;51.378;0.018;2022-08-19T11:02:11;1.77;;;0.63;;
26060;SDS011;36331;51.378;0.018;2022-08-19T11:04:41;1.98;;;0.40;;
26060;SDS011;36331;51.378;0.018;2022-08-19T11:07:12;1.17;;;0.63;;
26060;SDS011;36331;51.378;0.018;2022-08-19T11:09:43;3.63;;;0.95;;
26060;SDS011;36331;51.378;0.018;2022-08-19T11:12:13;3.70;;;0.60;;
26060;SDS011;36331;51.378;0.018;2022-08-19T11:14:44;3.03;;;0.73;;
26060;SDS011;36331;51.378;0.018;2022-08-19T11:17:17;3.10;;;0.75;;
26060;SDS011;36331;51.378;0.018;2022-08-19T11:19:46;5.85;;;0.80;;
26060;SDS011;36331;51.378;0.018;2022-08-19T11:22:17;4.47;;;1.10;;
26060;SDS011;36331;51.378;0.018;2022-08-19T11:24:48;3.78;;;0.73;;
26060;SDS011;36331;51.378;0.018;2022-08-19T11:27:17;0.40;;;0.20;;
26060;SDS011;36331;51.378;0.018;2022-08-19T11:29:48;1.83;;;0.50;;
26060;SDS011;36331;51.378;0.018;2022-08-19T11:32:19;1.15;;;0.40;;
26060;SDS011;36331;51.378;0.018;2022-08-19T11:34:49;3.63;;;0.85;;
26060;SDS011;36331;51.378;0.018;2022-08-19T11:37:19;2.13;;;0.73;;
26060;SDS011;36331;51.378;0.018;2022-08-19T11:39:49;2.88;;;0.70;;
26060;SDS011;36331;51.378;0.018;2022-08-19T11:42:22;5.18;;;0.55;;
26060;SDS011;36331;51.378;0.018;2022-08-19T11:45:09;3.00;;;0.40;;
26060;SDS011;36331;51.378;0.018;2022-08-19T11:47:39;2.42;;;0.60;;
26060;SDS011;36331;51.378;0.018;2022-08-19T11:50:08;2.28;;;0.70;;
26060;SDS011;36331;51.378;0.018;2022-08-19T11:52:38;2.65;;;0.52;;
26060;SDS011;36331;51.378;0.018;2022-08-19T11:55:09;1.77;;;0.50;;
26060;SDS011;36331;51.378;0.018;2022-08-19T11:57:41;2.50;;;0.55;;
26060;SDS011;36331;51.378;0.018;2022-08-19T12:00:11;1.85;;;0.70;;
26060;SDS011;36331;51.378;0.018;2022-08-19T12:02:43;2.38;;;0.68;;
26060;SDS011;36331;51.378;0.018;2022-08-19T12:05:13;2.47;;;0.68;;
26060;SDS011;36331;51.378;0.018;2022-08-19T12:07:48;2.13;;;0.63;;
26060;SDS011;36331;51.378;0.018;2022-08-19T12:10:18;7.18;;;0.70;;
26060;SDS011;36331;51.378;0.018;2022-08-19T12:12:52;3.45;;;1.05;;
26060;SDS011;36331;51.378;0.018;2022-08-19T12:15:25;4.18;;;0.88;;
26060;SDS011;36331;51.378;0.018;2022-08-19T12:18:06;4.18;;;1.25;;
26060;SDS011;36331;51.378;0.018;2022-08-19T12:20:36;3.80;;;1.23;;
26060;SDS011;36331;51.378;0.018;2022-08-19T12:23:08;5.25;;;1.27;;
26060;SDS011;36331;51.378;0.018;2022-08-19T12:25:44;3.72;;;1.48;;
26060;SDS011;36331;51.378;0.018;2022-08-19T12:28:17;3.55;;;1.35;;
26060;SDS011;36331;51.378;0.018;2022-08-19T12:30:47;4.35;;;1.20;;
26060;SDS011;36331;51.378;0.018;2022-08-19T12:33:17;5.25;;;1.38;;
26060;SDS011;36331;51.378;0.018;2022-08-19T12:35:46;5.00;;;0.95;;
26060;SDS011;36331;51.378;0.018;2022-08-19T12:38:17;3.38;;;1.10;;
26060;SDS011;36331;51.378;0.018;2022-08-19T12:40:48;3.13;;;1.27;;
26060;SDS011;36331;51.378;0.018;2022-08-19T12:43:23;7.53;;;1.60;;
26060;SDS011;36331;51.378;0.018;2022-08-19T12:45:52;3.50;;;1.15;;
26060;SDS011;36331;51.378;0.018;2022-08-19T12:48:22;4.95;;;1.17;;
26060;SDS011;36331;51.378;0.018;2022-08-19T12:51:00;3.20;;;1.65;;
26060;SDS011;36331;51.378;0.018;2022-08-19T12:53:30;7.50;;;1.20;;
26060;SDS011;36331;51.378;0.018;2022-08-19T12:56:02;4.13;;;1.20;;
26060;SDS011;36331;51.378;0.018;2022-08-19T12:58:37;3.38;;;0.95;;
26060;SDS011;36331;51.378;0.018;2022-08-19T13:01:17;3.85;;;1.20;;
26060;SDS011;36331;51.378;0.018;2022-08-19T13:03:49;4.25;;;0.95;;
26060;SDS011;36331;51.378;0.018;2022-08-19T13:06:20;6.70;;;2.20;;
26060;SDS011;36331;51.378;0.018;2022-08-19T13:08:50;4.07;;;0.93;;
26060;SDS011;36331;51.378;0.018;2022-08-19T13:11:26;5.68;;;0.80;;
26060;SDS011;36331;51.378;0.018;2022-08-19T13:14:00;3.42;;;0.80;;
26060;SDS011;36331;51.378;0.018;2022-08-19T13:16:29;3.60;;;0.93;;
26060;SDS011;36331;51.378;0.018;2022-08-19T13:18:59;3.72;;;0.95;;
26060;SDS011;36331;51.378;0.018;2022-08-19T13:21:32;4.20;;;1.10;;
26060;SDS011;36331;51.378;0.018;2022-08-19T13:24:03;1.65;;;0.60;;
26060;SDS011;36331;51.378;0.018;2022-08-19T13:26:34;4.55;;;1.23;;
26060;SDS011;36331;51.378;0.018;2022-08-19T13:29:04;5.03;;;1.10;;
26060;SDS011;36331;51.378;0.018;2022-08-19T13:31:51;4.70;;;1.10;;
26060;SDS011;36331;51.378;0.018;2022-08-19T13:34:44;5.93;;;1.02;;
26060;SDS011;36331;51.378;0.018;2022-08-19T13:37:14;4.60;;;1.25;;
26060;SDS011;36331;51.378;0.018;2022-08-19T13:40:04;4.50;;;0.73;;
26060;SDS011;36331;51.378;0.018;2022-08-19T13:42:35;4.53;;;0.93;;
26060;SDS011;36331;51.378;0.018;2022-08-19T13:45:05;2.70;;;0.95;;
26060;SDS011;36331;51.378;0.018;2022-08-19T13:47:36;3.75;;;1.00;;
26060;SDS011;36331;51.378;0.018;2022-08-19T13:50:10;3.03;;;0.80;;
26060;SDS011;36331;51.378;0.018;2022-08-19T13:52:39;2.40;;;1.17;;
26060;SDS011;36331;51.378;0.018;2022-08-19T13:55:09;2.75;;;0.88;;
26060;SDS011;36331;51.378;0.018;2022-08-19T13:57:40;3.05;;;1.08;;
26060;SDS011;36331;51.378;0.018;2022-08-19T14:00:12;9.25;;;1.13;;
26060;SDS011;36331;51.378;0.018;2022-08-19T14:02:42;3.27;;;0.90;;
26060;SDS011;36331;51.378;0.018;2022-08-19T14:05:13;8.80;;;1.40;;
26060;SDS011;36331;51.378;0.018;2022-08-19T14:07:43;6.38;;;0.90;;
26060;SDS011;36331;51.378;0.018;2022-08-19T14:10:16;4.07;;;1.10;;
26060;SDS011;36331;51.378;0.018;2022-08-19T14:12:47;1.83;;;0.73;;
26060;SDS011;36331;51.378;0.018;2022-08-19T14:15:17;5.20;;;1.08;;
26060;SDS011;36331;51.378;0.018;2022-08-19T14:17:48;5.50;;;0.87;;
26060;SDS011;36331;51.378;0.018;2022-08-19T14:20:18;3.13;;;1.10;;
26060;SDS011;36331;51.378;0.018;2022-08-19T14:22:52;5.93;;;1.13;;
26060;SDS011;36331;51.378;0.018;2022-08-19T14:25:23;4.55;;;0.80;;
26060;SDS011;36331;51.378;0.018;2022-08-19T14:27:55;4.47;;;1.13;;
26060;SDS011;36331;51.378;0.018;2022-08-19T14:30:25;5.15;;;1.00;;
26060;SDS011;36331;51.378;0.018;2022-08-19T14:32:58;5.78;;;2.05;;
26060;SDS011;36331;51.378;0.018;2022-08-19T14:35:29;5.22;;;0.90;;
26060;SDS011;36331;51.378;0.018;2022-08-19T14:38:01;4.97;;;1.00;;
26060;SDS011;36331;51.378;0.018;2022-08-19T14:40:31;5.55;;;0.88;;
26060;SDS011;36331;51.378;0.018;2022-08-19T14:43:03;5.35;;;0.85;;
26060;SDS011;36331;51.378;0.018;2022-08-19T14:45:34;2.47;;;0.60;;
26060;SDS011;36331;51.378;0.018;2022-08-19T14:48:04;7.00;;;0.70;;
26060;SDS011;36331;51.378;0.018;2022-08-19T14:50:45;3.17;;;0.88;;
26060;SDS011;36331;51.378;0.018;2022-08-19T14:53:15;3.60;;;0.70;;
26060;SDS011;36331;51.378;0.018;2022-08-19T14:55:45;3.75;;;1.05;;
26060;SDS011;36331;51.378;0.018;2022-08-19T14:58:16;2.85;;;0.60;;
26060;SDS011;36331;51.378;0.018;2022-08-19T15:00:57;4.18;;;0.77;;
26060;SDS011;36331;51.378;0.018;2022-08-19T15:03:27;3.35;;;0.82;;
26060;SDS011;36331;51.378;0.018;2022-08-19T15:05:58;4.50;;;1.20;;
26060;SDS011;36331;51.378;0.018;2022-08-19T15:08:29;4.78;;;1.10;;
26060;SDS011;36331;51.378;0.018;2022-08-19T15:10:58;5.03;;;0.85;;
26060;SDS011;36331;51.378;0.018;2022-08-19T15:13:30;3.20;;;0.70;;
26060;SDS011;36331;51.378;0.018;2022-08-19T15:16:00;2.97;;;0.70;;
26060;SDS011;36331;51.378;0.018;2022-08-19T15:18:30;3.85;;;0.65;;
26060;SDS011;36331;51.378;0.018;2022-08-19T15:20:59;2.38;;;0.70;;
26060;SDS011;36331;51.378;0.018;2022-08-19T15:23:30;3.15;;;0.70;;
26060;SDS011;36331;51.378;0.018;2022-08-19T15:26:00;4.32;;;1.05;;